createdAt,value
2023-07-25T00:00:05.147Z,18.57
2023-07-25T00:00:15.412Z,18.57
2023-07-25T00:00:25.670Z,18.57
2023-07-25T00:00:35.928Z,18.57
2023-07-25T00:00:46.192Z,18.58
2023-07-25T00:00:56.456Z,18.58
2023-07-25T00:01:06.730Z,18.58
2023-07-25T00:01:16.993Z,18.57
2023-07-25T00:01:27.278Z,18.55
2023-07-25T00:01:37.750Z,18.57
2023-07-25T00:01:48.005Z,18.57
2023-07-25T00:01:58.264Z,18.55
2023-07-25T00:02:08.548Z,18.55
2023-07-25T00:02:18.846Z,18.57
2023-07-25T00:02:29.116Z,18.55
2023-07-25T00:02:39.958Z,18.53
2023-07-25T00:02:49.801Z,18.53
2023-07-25T00:03:00.095Z,18.53
2023-07-25T00:03:10.364Z,18.57
2023-07-25T00:03:20.621Z,18.55
2023-07-25T00:03:30.933Z,18.55
2023-07-25T00:03:41.205Z,18.55
2023-07-25T00:03:51.479Z,18.53
2023-07-25T00:04:01.748Z,18.52
2023-07-25T00:04:53.354Z,18.52
2023-07-25T00:05:03.629Z,18.53
2023-07-25T00:05:13.866Z,18.53
2023-07-25T00:05:24.133Z,18.51
2023-07-25T00:05:34.391Z,18.52
2023-07-25T00:05:44.653Z,18.52
2023-07-25T00:05:54.914Z,18.51
2023-07-25T00:06:05.170Z,18.52
2023-07-25T00:06:15.432Z,18.52
2023-07-25T00:06:25.690Z,18.52
2023-07-25T00:06:35.953Z,18.51
2023-07-25T00:06:46.211Z,18.51
2023-07-25T00:06:56.488Z,18.51
2023-07-25T00:07:06.779Z,18.52
2023-07-25T00:07:17.034Z,18.51
2023-07-25T00:07:27.312Z,18.51
2023-07-25T00:07:37.581Z,18.51
2023-07-25T00:07:47.828Z,18.51
2023-07-25T00:07:58.090Z,18.52
2023-07-25T00:08:08.374Z,18.51
2023-07-25T00:08:18.632Z,18.49
2023-07-25T00:08:28.889Z,18.51
2023-07-25T00:08:39.156Z,18.49
2023-07-25T00:08:49.426Z,18.51
2023-07-25T00:08:59.681Z,18.48
2023-07-25T00:09:09.951Z,18.48
2023-07-25T00:09:20.205Z,18.49
2023-07-25T00:09:30.469Z,18.49
2023-07-25T00:09:40.729Z,18.48
2023-07-25T00:09:51.082Z,18.48
2023-07-25T00:10:01.404Z,18.51
2023-07-25T00:10:11.672Z,18.48
2023-07-25T00:10:21.910Z,18.49
2023-07-25T00:10:32.167Z,18.48
2023-07-25T00:10:42.430Z,18.48
2023-07-25T00:10:52.737Z,18.49
2023-07-25T00:11:03.104Z,18.46
2023-07-25T00:11:13.367Z,18.48
2023-07-25T00:11:23.625Z,18.48
2023-07-25T00:11:34.082Z,18.48
2023-07-25T00:11:44.210Z,18.48
2023-07-25T00:11:54.479Z,18.46
2023-07-25T00:12:04.745Z,18.46
2023-07-25T00:12:15.006Z,18.46
2023-07-25T00:12:25.267Z,18.45
2023-07-25T00:12:35.532Z,18.46
2023-07-25T00:12:45.787Z,18.45
2023-07-25T00:12:56.049Z,18.48
2023-07-25T00:13:06.307Z,18.43
2023-07-25T00:13:16.572Z,18.45
2023-07-25T00:13:26.831Z,18.46
2023-07-25T00:13:37.095Z,18.43
2023-07-25T00:13:47.351Z,18.45
2023-07-25T00:13:57.613Z,18.45
2023-07-25T00:14:07.881Z,18.45
2023-07-25T00:14:18.141Z,18.43
2023-07-25T00:14:28.426Z,18.45
2023-07-25T00:14:38.665Z,18.45
2023-07-25T00:14:48.916Z,18.45
2023-07-25T00:14:59.177Z,18.43
2023-07-25T00:15:09.444Z,18.43
2023-07-25T00:15:19.698Z,18.42
2023-07-25T00:15:29.964Z,18.43
2023-07-25T00:15:40.233Z,18.42
2023-07-25T00:15:50.535Z,18.43
2023-07-25T00:16:00.832Z,18.43
2023-07-25T00:16:11.139Z,18.43
2023-07-25T00:16:21.440Z,18.43
2023-07-25T00:16:31.735Z,18.43
2023-07-25T00:16:42.005Z,18.42
2023-07-25T00:16:52.351Z,18.42
2023-07-25T00:17:02.597Z,18.42
2023-07-25T00:17:12.856Z,18.42
2023-07-25T00:17:23.156Z,18.43
2023-07-25T00:17:33.405Z,18.42
2023-07-25T00:17:43.723Z,18.42
2023-07-25T00:17:54.002Z,18.41
2023-07-25T00:18:04.254Z,18.41
2023-07-25T00:18:14.513Z,18.42
2023-07-25T00:18:24.786Z,18.42
2023-07-25T00:18:35.039Z,18.41
2023-07-25T00:18:45.302Z,18.41
2023-07-25T00:18:55.556Z,18.43
2023-07-25T00:19:05.810Z,18.41
2023-07-25T00:19:16.198Z,18.39
2023-07-25T00:19:26.464Z,18.41
2023-07-25T00:19:36.721Z,18.39
2023-07-25T00:19:46.995Z,18.39
2023-07-25T00:19:57.241Z,18.39
2023-07-25T00:20:07.502Z,18.39
2023-07-25T00:20:17.837Z,18.39
2023-07-25T00:20:28.080Z,18.37
2023-07-25T00:20:38.370Z,18.39
2023-07-25T00:20:48.615Z,18.37
2023-07-25T00:20:58.902Z,18.41
2023-07-25T00:21:09.148Z,18.37
2023-07-25T00:21:19.462Z,18.39
2023-07-25T00:21:30.010Z,18.37
2023-07-25T00:21:40.001Z,18.39
2023-07-25T00:21:50.296Z,18.39
2023-07-25T00:22:00.656Z,18.36
2023-07-25T00:22:10.958Z,18.37
2023-07-25T00:22:21.217Z,18.37
2023-07-25T00:22:31.476Z,18.37
2023-07-25T00:22:41.742Z,18.36
2023-07-25T00:22:51.994Z,18.36
2023-07-25T00:23:02.259Z,18.36
2023-07-25T00:23:12.529Z,18.36
2023-07-25T00:23:22.782Z,18.37
2023-07-25T00:23:33.050Z,18.36
2023-07-25T00:23:43.302Z,18.36
2023-07-25T00:23:53.563Z,18.37
2023-07-25T00:24:03.910Z,18.36
2023-07-25T00:24:14.207Z,18.34
2023-07-25T00:24:24.465Z,18.36
2023-07-25T00:24:34.804Z,18.34
2023-07-25T00:24:45.050Z,18.34
2023-07-25T00:24:55.342Z,18.34
2023-07-25T00:25:05.605Z,18.36
2023-07-25T00:25:15.855Z,18.34
2023-07-25T00:25:26.192Z,18.34
2023-07-25T00:25:36.496Z,18.36
2023-07-25T00:25:46.787Z,18.34
2023-07-25T00:25:57.030Z,18.33
2023-07-25T00:26:07.354Z,18.34
2023-07-25T00:26:17.601Z,18.33
2023-07-25T00:26:27.848Z,18.34
2023-07-25T00:26:38.110Z,18.33
2023-07-25T00:26:48.377Z,18.31
2023-07-25T00:26:58.637Z,18.34
2023-07-25T00:27:08.893Z,18.33
2023-07-25T00:27:19.170Z,18.31
2023-07-25T00:27:29.421Z,18.33
2023-07-25T00:27:39.679Z,18.31
2023-07-25T00:27:49.945Z,18.33
2023-07-25T00:28:00.202Z,18.31
2023-07-25T00:28:10.457Z,18.31
2023-07-25T00:28:20.724Z,18.30
2023-07-25T00:28:30.978Z,18.31
2023-07-25T00:28:41.237Z,18.31
2023-07-25T00:28:51.519Z,18.30
2023-07-25T00:29:01.766Z,18.30
2023-07-25T00:29:12.035Z,18.31
2023-07-25T00:29:22.289Z,18.30
2023-07-25T00:29:32.563Z,18.30
2023-07-25T00:29:42.816Z,18.30
2023-07-25T00:29:53.098Z,18.28
2023-07-25T00:30:03.353Z,18.30
2023-07-25T00:30:13.606Z,18.30
2023-07-25T00:30:23.890Z,18.28
2023-07-25T00:30:34.145Z,18.30
2023-07-25T00:30:44.420Z,18.30
2023-07-25T00:30:54.687Z,18.28
2023-07-25T00:31:04.945Z,18.28
2023-07-25T00:31:15.243Z,18.28
2023-07-25T00:31:25.505Z,18.28
2023-07-25T00:31:35.996Z,18.27
2023-07-25T00:31:46.196Z,18.27
2023-07-25T00:31:56.534Z,18.27
2023-07-25T00:32:06.907Z,18.27
2023-07-25T00:32:17.206Z,18.28
2023-07-25T00:32:27.512Z,18.27
2023-07-25T00:32:37.776Z,18.26
2023-07-25T00:32:48.087Z,18.28
2023-07-25T00:32:58.431Z,18.28
2023-07-25T00:33:08.714Z,18.24
2023-07-25T00:33:18.956Z,18.27
2023-07-25T00:33:29.213Z,18.27
2023-07-25T00:33:39.474Z,18.26
2023-07-25T00:33:49.740Z,18.26
2023-07-25T00:33:59.990Z,18.26
2023-07-25T00:34:10.252Z,18.24
2023-07-25T00:34:20.510Z,18.24
2023-07-25T00:34:30.784Z,18.24
2023-07-25T00:34:41.041Z,18.26
2023-07-25T00:34:51.331Z,18.26
2023-07-25T00:35:01.575Z,18.26
2023-07-25T00:35:11.842Z,18.26
2023-07-25T00:35:22.153Z,18.24
2023-07-25T00:35:32.410Z,18.24
2023-07-25T00:35:42.671Z,18.26
2023-07-25T00:35:52.934Z,18.24
2023-07-25T00:36:03.199Z,18.24
2023-07-25T00:36:13.456Z,18.26
2023-07-25T00:36:23.710Z,18.23
2023-07-25T00:36:33.977Z,18.26
2023-07-25T00:36:44.237Z,18.23
2023-07-25T00:36:54.496Z,18.23
2023-07-25T00:37:04.758Z,18.24
2023-07-25T00:37:15.018Z,18.24
2023-07-25T00:37:25.281Z,18.23
2023-07-25T00:37:35.553Z,18.21
2023-07-25T00:37:45.811Z,18.23
2023-07-25T00:37:56.066Z,18.23
2023-07-25T00:38:06.337Z,18.23
2023-07-25T00:38:16.587Z,18.23
2023-07-25T00:38:26.865Z,18.21
2023-07-25T00:38:37.108Z,18.21
2023-07-25T00:38:47.366Z,18.21
2023-07-25T00:38:57.630Z,18.21
2023-07-25T00:39:07.893Z,18.23
2023-07-25T00:39:18.150Z,18.21
2023-07-25T00:39:28.423Z,18.21
2023-07-25T00:39:38.686Z,18.21
2023-07-25T00:39:48.959Z,18.21
2023-07-25T00:39:59.239Z,18.23
2023-07-25T00:40:09.509Z,18.21
2023-07-25T00:40:19.770Z,18.21
2023-07-25T00:40:30.112Z,18.23
2023-07-25T00:40:40.376Z,18.19
2023-07-25T00:40:50.620Z,18.19
2023-07-25T00:41:00.886Z,18.19
2023-07-25T00:41:11.156Z,18.19
2023-07-25T00:41:21.417Z,18.19
2023-07-25T00:41:31.981Z,18.18
2023-07-25T00:41:41.917Z,18.18
2023-07-25T00:41:52.171Z,18.18
2023-07-25T00:42:02.429Z,18.18
2023-07-25T00:42:12.700Z,18.18
2023-07-25T00:42:22.967Z,18.18
2023-07-25T00:42:33.225Z,18.16
2023-07-25T00:42:43.484Z,18.18
2023-07-25T00:42:53.745Z,18.18
2023-07-25T00:43:04.009Z,18.16
2023-07-25T00:43:14.267Z,18.16
2023-07-25T00:43:24.530Z,18.15
2023-07-25T00:43:34.806Z,18.16
2023-07-25T00:43:45.056Z,18.16
2023-07-25T00:43:55.312Z,18.18
2023-07-25T00:44:05.621Z,18.16
2023-07-25T00:44:15.847Z,18.16
2023-07-25T00:44:26.115Z,18.13
2023-07-25T00:44:36.394Z,18.16
2023-07-25T00:44:46.667Z,18.16
2023-07-25T00:44:56.934Z,18.15
2023-07-25T00:45:07.204Z,18.15
2023-07-25T00:45:17.455Z,18.15
2023-07-25T00:45:27.732Z,18.13
2023-07-25T00:45:37.976Z,18.15
2023-07-25T00:45:48.280Z,18.15
2023-07-25T00:45:58.583Z,18.13
2023-07-25T00:46:08.894Z,18.13
2023-07-25T00:46:19.195Z,18.13
2023-07-25T00:46:29.454Z,18.13
2023-07-25T00:46:39.732Z,18.13
2023-07-25T00:46:49.995Z,18.12
2023-07-25T00:47:00.249Z,18.13
2023-07-25T00:47:10.508Z,18.13
2023-07-25T00:47:20.773Z,18.13
2023-07-25T00:47:31.074Z,18.12
2023-07-25T00:47:41.323Z,18.13
2023-07-25T00:47:51.590Z,18.11
2023-07-25T00:48:01.848Z,18.12
2023-07-25T00:48:12.127Z,18.12
2023-07-25T00:48:22.367Z,18.15
2023-07-25T00:48:32.624Z,18.12
2023-07-25T00:48:42.885Z,18.09
2023-07-25T00:48:53.159Z,18.12
2023-07-25T00:49:03.426Z,18.12
2023-07-25T00:49:13.702Z,18.11
2023-07-25T00:49:23.972Z,18.11
2023-07-25T00:49:34.232Z,18.11
2023-07-25T00:49:44.491Z,18.12
2023-07-25T00:49:54.749Z,18.11
2023-07-25T00:50:05.010Z,18.09
2023-07-25T00:50:15.275Z,18.09
2023-07-25T00:50:25.532Z,18.09
2023-07-25T00:50:35.795Z,18.09
2023-07-25T00:50:46.057Z,18.09
2023-07-25T00:50:56.325Z,18.11
2023-07-25T00:51:06.572Z,18.08
2023-07-25T00:51:16.844Z,18.09
2023-07-25T00:51:27.127Z,18.08
2023-07-25T00:51:37.357Z,18.09
2023-07-25T00:51:47.623Z,18.09
2023-07-25T00:51:57.885Z,18.06
2023-07-25T00:52:08.153Z,18.09
2023-07-25T00:52:18.413Z,18.09
2023-07-25T00:52:28.679Z,18.08
2023-07-25T00:52:38.959Z,18.06
2023-07-25T00:52:49.196Z,18.06
2023-07-25T00:52:59.457Z,18.06
2023-07-25T00:53:09.710Z,18.08
2023-07-25T00:53:19.995Z,18.06
2023-07-25T00:53:30.248Z,18.06
2023-07-25T00:53:40.504Z,18.08
2023-07-25T00:53:50.780Z,18.06
2023-07-25T00:54:01.054Z,18.06
2023-07-25T00:54:11.312Z,18.05
2023-07-25T00:54:21.594Z,18.08
2023-07-25T00:54:31.851Z,18.06
2023-07-25T00:54:42.111Z,18.03
2023-07-25T00:54:52.382Z,18.05
2023-07-25T00:55:02.630Z,18.02
2023-07-25T00:55:12.893Z,18.06
2023-07-25T00:55:23.159Z,18.03
2023-07-25T00:55:33.426Z,18.05
2023-07-25T00:55:43.679Z,18.02
2023-07-25T00:55:53.950Z,18.05
2023-07-25T00:56:04.228Z,18.03
2023-07-25T00:56:14.467Z,18.03
2023-07-25T00:56:24.729Z,18.03
2023-07-25T00:56:34.984Z,18.03
2023-07-25T00:56:45.256Z,18.02
2023-07-25T00:56:55.525Z,18.02
2023-07-25T00:57:05.777Z,18.03
2023-07-25T00:57:16.040Z,18.02
2023-07-25T00:57:26.310Z,18.02
2023-07-25T00:57:36.564Z,18.02
2023-07-25T00:57:46.827Z,18.02
2023-07-25T00:57:57.087Z,18.00
2023-07-25T00:58:07.422Z,18.02
2023-07-25T00:58:17.759Z,18.02
2023-07-25T00:58:28.068Z,18.00
2023-07-25T00:58:38.338Z,18.00
2023-07-25T00:58:48.598Z,18.02
2023-07-25T00:58:58.851Z,18.00
2023-07-25T00:59:09.112Z,17.98
2023-07-25T00:59:19.368Z,18.02
2023-07-25T00:59:29.637Z,17.98
2023-07-25T00:59:39.897Z,17.98
2023-07-25T00:59:50.174Z,17.98
2023-07-25T01:00:00.427Z,17.98
2023-07-25T01:00:10.706Z,17.98
2023-07-25T01:00:20.944Z,17.98
2023-07-25T01:00:31.214Z,17.97
2023-07-25T01:00:41.463Z,17.98
2023-07-25T01:00:51.732Z,17.98
2023-07-25T01:01:01.985Z,17.98
2023-07-25T01:01:12.289Z,17.97
2023-07-25T01:01:22.563Z,17.97
2023-07-25T01:01:33.135Z,17.98
2023-07-25T01:01:43.217Z,17.97
2023-07-25T01:01:53.503Z,17.95
2023-07-25T01:02:03.774Z,17.97
2023-07-25T01:02:14.070Z,17.97
2023-07-25T01:02:24.413Z,17.97
2023-07-25T01:02:34.827Z,17.95
2023-07-25T01:02:45.042Z,17.95
2023-07-25T01:02:55.270Z,17.98
2023-07-25T01:03:05.588Z,17.95
2023-07-25T01:03:15.974Z,17.94
2023-07-25T01:03:26.395Z,17.95
2023-07-25T01:03:36.736Z,17.95
2023-07-25T01:03:47.176Z,17.94
2023-07-25T01:03:57.471Z,17.93
2023-07-25T01:04:07.740Z,17.94
2023-07-25T01:04:18.000Z,17.94
2023-07-25T01:04:28.257Z,17.94
2023-07-25T01:04:38.517Z,17.93
2023-07-25T01:04:48.797Z,17.94
2023-07-25T01:04:59.036Z,17.91
2023-07-25T01:05:09.302Z,17.94
2023-07-25T01:05:19.571Z,17.91
2023-07-25T01:05:29.828Z,17.94
2023-07-25T01:05:40.102Z,17.94
2023-07-25T01:05:50.371Z,17.93
2023-07-25T01:06:00.632Z,17.91
2023-07-25T01:06:10.897Z,17.91
2023-07-25T01:06:21.158Z,17.91
2023-07-25T01:06:31.410Z,17.90
2023-07-25T01:06:41.672Z,17.91
2023-07-25T01:06:51.929Z,17.90
2023-07-25T01:07:02.191Z,17.88
2023-07-25T01:07:12.463Z,17.90
2023-07-25T01:07:22.731Z,17.91
2023-07-25T01:07:33.025Z,17.90
2023-07-25T01:07:43.278Z,17.90
2023-07-25T01:07:53.547Z,17.90
2023-07-25T01:08:03.815Z,17.87
2023-07-25T01:08:14.080Z,17.90
2023-07-25T01:08:24.360Z,17.87
2023-07-25T01:08:34.586Z,17.88
2023-07-25T01:08:44.848Z,17.90
2023-07-25T01:08:55.113Z,17.87
2023-07-25T01:09:05.368Z,17.87
2023-07-25T01:09:15.630Z,17.87
2023-07-25T01:09:25.889Z,17.86
2023-07-25T01:09:36.152Z,17.87
2023-07-25T01:09:46.413Z,17.87
2023-07-25T01:09:56.714Z,17.87
2023-07-25T01:10:06.962Z,17.87
2023-07-25T01:10:17.220Z,17.86
2023-07-25T01:10:27.469Z,17.86
2023-07-25T01:10:37.750Z,17.86
2023-07-25T01:10:47.991Z,17.86
2023-07-25T01:10:58.262Z,17.86
2023-07-25T01:11:08.565Z,17.82
2023-07-25T01:11:18.843Z,17.86
2023-07-25T01:11:29.118Z,17.84
2023-07-25T01:11:39.386Z,17.84
2023-07-25T01:11:49.626Z,17.82
2023-07-25T01:11:59.879Z,17.82
2023-07-25T01:12:10.164Z,17.82
2023-07-25T01:12:20.429Z,17.82
2023-07-25T01:12:30.707Z,17.80
2023-07-25T01:12:40.958Z,17.84
2023-07-25T01:12:51.226Z,17.82
2023-07-25T01:13:01.483Z,17.79
2023-07-25T01:13:11.738Z,17.82
2023-07-25T01:13:22.002Z,17.80
2023-07-25T01:13:32.269Z,17.80
2023-07-25T01:13:42.525Z,17.79
2023-07-25T01:13:52.793Z,17.79
2023-07-25T01:14:03.061Z,17.79
2023-07-25T01:14:13.307Z,17.78
2023-07-25T01:14:23.568Z,17.80
2023-07-25T01:14:33.849Z,17.79
2023-07-25T01:14:44.115Z,17.79
2023-07-25T01:14:54.375Z,17.79
2023-07-25T01:15:04.636Z,17.76
2023-07-25T01:15:14.930Z,17.78
2023-07-25T01:15:25.184Z,17.78
2023-07-25T01:15:35.458Z,17.76
2023-07-25T01:15:45.739Z,17.78
2023-07-25T01:15:56.010Z,17.75
2023-07-25T01:16:06.307Z,17.75
2023-07-25T01:16:16.580Z,17.78
2023-07-25T01:16:26.900Z,17.76
2023-07-25T01:16:37.210Z,17.76
2023-07-25T01:16:47.454Z,17.75
2023-07-25T01:16:57.763Z,17.73
2023-07-25T01:17:08.034Z,17.75
2023-07-25T01:17:18.330Z,17.72
2023-07-25T01:17:28.585Z,17.76
2023-07-25T01:17:38.857Z,17.73
2023-07-25T01:17:49.134Z,17.73
2023-07-25T01:17:59.436Z,17.75
2023-07-25T01:18:09.669Z,17.72
2023-07-25T01:18:19.936Z,17.72
2023-07-25T01:18:30.190Z,17.72
2023-07-25T01:18:40.452Z,17.71
2023-07-25T01:18:50.712Z,17.72
2023-07-25T01:19:00.977Z,17.71
2023-07-25T01:19:11.240Z,17.71
2023-07-25T01:19:21.496Z,17.72
2023-07-25T01:19:31.793Z,17.71
2023-07-25T01:19:42.062Z,17.71
2023-07-25T01:19:52.323Z,17.69
2023-07-25T01:20:02.605Z,17.71
2023-07-25T01:20:12.855Z,17.69
2023-07-25T01:20:23.119Z,17.69
2023-07-25T01:20:33.373Z,17.69
2023-07-25T01:20:43.643Z,17.71
2023-07-25T01:20:53.893Z,17.69
2023-07-25T01:21:04.156Z,17.68
2023-07-25T01:21:14.425Z,17.68
2023-07-25T01:21:24.688Z,17.68
2023-07-25T01:21:34.945Z,17.69
2023-07-25T01:21:45.222Z,17.66
2023-07-25T01:21:55.499Z,17.68
2023-07-25T01:22:05.771Z,17.68
2023-07-25T01:22:16.021Z,17.68
2023-07-25T01:22:26.284Z,17.66
2023-07-25T01:22:36.549Z,17.66
2023-07-25T01:22:46.809Z,17.66
2023-07-25T01:22:57.062Z,17.66
2023-07-25T01:23:07.356Z,17.66
2023-07-25T01:23:17.598Z,17.65
2023-07-25T01:23:27.903Z,17.65
2023-07-25T01:23:38.123Z,17.65
2023-07-25T01:23:48.383Z,17.65
2023-07-25T01:23:58.649Z,17.65
2023-07-25T01:24:08.919Z,17.63
2023-07-25T01:24:19.195Z,17.65
2023-07-25T01:24:29.487Z,17.63
2023-07-25T01:24:39.754Z,17.63
2023-07-25T01:24:50.033Z,17.60
2023-07-25T01:25:00.297Z,17.63
2023-07-25T01:25:10.551Z,17.59
2023-07-25T01:25:20.807Z,17.60
2023-07-25T01:25:31.084Z,17.63
2023-07-25T01:25:41.343Z,17.59
2023-07-25T01:25:51.605Z,17.60
2023-07-25T01:26:01.874Z,17.59
2023-07-25T01:26:12.149Z,17.60
2023-07-25T01:26:22.496Z,17.60
2023-07-25T01:26:32.771Z,17.59
2023-07-25T01:26:43.030Z,17.57
2023-07-25T01:26:53.294Z,17.59
2023-07-25T01:27:03.554Z,17.57
2023-07-25T01:27:13.829Z,17.57
2023-07-25T01:27:24.088Z,17.59
2023-07-25T01:27:34.331Z,17.56
2023-07-25T01:27:44.594Z,17.59
2023-07-25T01:27:54.866Z,17.56
2023-07-25T01:28:05.128Z,17.57
2023-07-25T01:28:15.401Z,17.54
2023-07-25T01:28:25.639Z,17.57
2023-07-25T01:28:35.903Z,17.54
2023-07-25T01:28:46.165Z,17.54
2023-07-25T01:28:56.431Z,17.56
2023-07-25T01:29:06.685Z,17.54
2023-07-25T01:29:16.946Z,17.56
2023-07-25T01:29:27.204Z,17.56
2023-07-25T01:29:37.460Z,17.56
2023-07-25T01:29:47.733Z,17.56
2023-07-25T01:29:57.981Z,17.54
2023-07-25T01:30:08.245Z,17.53
2023-07-25T01:30:18.517Z,17.53
2023-07-25T01:30:28.782Z,17.53
2023-07-25T01:30:39.043Z,17.53
2023-07-25T01:30:49.303Z,17.53
2023-07-25T01:30:59.580Z,17.50
2023-07-25T01:31:09.853Z,17.53
2023-07-25T01:31:20.118Z,17.52
2023-07-25T01:31:30.759Z,17.50
2023-07-25T01:31:40.740Z,17.50
2023-07-25T01:31:50.995Z,17.52
2023-07-25T01:32:01.269Z,17.52
2023-07-25T01:32:11.540Z,17.50
2023-07-25T01:32:21.797Z,17.50
2023-07-25T01:32:32.111Z,17.49
2023-07-25T01:32:42.471Z,17.49
2023-07-25T01:32:52.735Z,17.50
2023-07-25T01:33:03.070Z,17.50
2023-07-25T01:33:13.299Z,17.49
2023-07-25T01:33:23.562Z,17.49
2023-07-25T01:33:33.829Z,17.49
2023-07-25T01:33:44.117Z,17.49
2023-07-25T01:33:54.415Z,17.49
2023-07-25T01:34:04.682Z,17.49
2023-07-25T01:34:14.972Z,17.49
2023-07-25T01:34:25.329Z,17.50
2023-07-25T01:34:35.450Z,17.49
2023-07-25T01:34:45.737Z,17.49
2023-07-25T01:34:55.981Z,17.47
2023-07-25T01:35:06.246Z,17.50
2023-07-25T01:35:16.516Z,17.49
2023-07-25T01:35:26.796Z,17.47
2023-07-25T01:35:37.133Z,17.46
2023-07-25T01:35:47.373Z,17.49
2023-07-25T01:35:57.630Z,17.46
2023-07-25T01:36:07.893Z,17.47
2023-07-25T01:36:18.155Z,17.47
2023-07-25T01:36:28.416Z,17.47
2023-07-25T01:36:38.690Z,17.47
2023-07-25T01:36:48.948Z,17.44
2023-07-25T01:36:59.210Z,17.47
2023-07-25T01:37:09.489Z,17.47
2023-07-25T01:37:19.738Z,17.47
2023-07-25T01:37:29.998Z,17.46
2023-07-25T01:37:40.250Z,17.47
2023-07-25T01:37:50.520Z,17.44
2023-07-25T01:38:00.779Z,17.46
2023-07-25T01:38:11.037Z,17.46
2023-07-25T01:38:21.304Z,17.46
2023-07-25T01:38:31.559Z,17.44
2023-07-25T01:38:41.818Z,17.42
2023-07-25T01:38:52.102Z,17.44
2023-07-25T01:39:02.338Z,17.44
2023-07-25T01:39:12.595Z,17.44
2023-07-25T01:39:22.858Z,17.46
2023-07-25T01:39:33.132Z,17.44
2023-07-25T01:39:43.402Z,17.44
2023-07-25T01:39:53.667Z,17.42
2023-07-25T01:40:03.921Z,17.44
2023-07-25T01:40:14.192Z,17.44
2023-07-25T01:40:24.468Z,17.42
2023-07-25T01:40:34.719Z,17.42
2023-07-25T01:40:44.976Z,17.41
2023-07-25T01:40:55.237Z,17.42
2023-07-25T01:41:05.498Z,17.44
2023-07-25T01:41:15.767Z,17.41
2023-07-25T01:41:26.028Z,17.42
2023-07-25T01:41:36.312Z,17.41
2023-07-25T01:41:46.550Z,17.41
2023-07-25T01:41:56.810Z,17.41
2023-07-25T01:42:07.084Z,17.41
2023-07-25T01:42:17.329Z,17.41
2023-07-25T01:42:27.590Z,17.42
2023-07-25T01:42:37.862Z,17.41
2023-07-25T01:42:48.154Z,17.39
2023-07-25T01:42:58.419Z,17.41
2023-07-25T01:43:08.679Z,17.41
2023-07-25T01:43:18.932Z,17.39
2023-07-25T01:43:29.227Z,17.39
2023-07-25T01:43:39.477Z,17.41
2023-07-25T01:43:49.821Z,17.39
2023-07-25T01:44:00.079Z,17.38
2023-07-25T01:44:10.327Z,17.38
2023-07-25T01:44:20.624Z,17.39
2023-07-25T01:44:30.866Z,17.39
2023-07-25T01:44:41.143Z,17.38
2023-07-25T01:44:51.428Z,17.38
2023-07-25T01:45:01.681Z,17.38
2023-07-25T01:45:11.940Z,17.38
2023-07-25T01:45:22.192Z,17.38
2023-07-25T01:45:32.489Z,17.39
2023-07-25T01:45:42.857Z,17.38
2023-07-25T01:45:53.185Z,17.38
2023-07-25T01:46:03.431Z,17.37
2023-07-25T01:46:13.710Z,17.38
2023-07-25T01:46:23.957Z,17.38
2023-07-25T01:46:34.233Z,17.38
2023-07-25T01:46:44.480Z,17.38
2023-07-25T01:46:54.748Z,17.37
2023-07-25T01:47:04.997Z,17.37
2023-07-25T01:47:15.260Z,17.38
2023-07-25T01:47:25.580Z,17.37
2023-07-25T01:47:35.881Z,17.38
2023-07-25T01:47:46.184Z,17.37
2023-07-25T01:47:56.432Z,17.37
2023-07-25T01:48:06.679Z,17.38
2023-07-25T01:48:16.921Z,17.35
2023-07-25T01:48:27.196Z,17.37
2023-07-25T01:48:37.526Z,17.35
2023-07-25T01:48:47.771Z,17.37
2023-07-25T01:48:58.041Z,17.37
2023-07-25T01:49:08.301Z,17.35
2023-07-25T01:49:18.597Z,17.35
2023-07-25T01:49:28.900Z,17.37
2023-07-25T01:49:39.177Z,17.35
2023-07-25T01:49:49.424Z,17.35
2023-07-25T01:49:59.683Z,17.38
2023-07-25T01:50:09.953Z,17.37
2023-07-25T01:50:20.250Z,17.35
2023-07-25T01:50:30.477Z,17.37
2023-07-25T01:50:40.738Z,17.37
2023-07-25T01:50:51.010Z,17.34
2023-07-25T01:51:01.261Z,17.34
2023-07-25T01:51:11.529Z,17.35
2023-07-25T01:51:21.784Z,17.34
2023-07-25T01:51:32.355Z,17.34
2023-07-25T01:51:42.362Z,17.34
2023-07-25T01:51:52.600Z,17.34
2023-07-25T01:52:02.859Z,17.34
2023-07-25T01:52:13.113Z,17.34
2023-07-25T01:52:23.374Z,17.34
2023-07-25T01:52:33.634Z,17.34
2023-07-25T01:52:43.899Z,17.34
2023-07-25T01:52:54.186Z,17.34
2023-07-25T01:53:04.431Z,17.31
2023-07-25T01:53:14.694Z,17.34
2023-07-25T01:53:24.960Z,17.34
2023-07-25T01:53:35.226Z,17.32
2023-07-25T01:53:45.498Z,17.32
2023-07-25T01:53:55.756Z,17.32
2023-07-25T01:54:06.036Z,17.32
2023-07-25T01:54:16.292Z,17.31
2023-07-25T01:54:26.559Z,17.30
2023-07-25T01:54:36.832Z,17.31
2023-07-25T01:54:47.071Z,17.31
2023-07-25T01:54:57.336Z,17.31
2023-07-25T01:55:07.607Z,17.31
2023-07-25T01:55:17.853Z,17.30
2023-07-25T01:55:28.116Z,17.30
2023-07-25T01:55:38.385Z,17.30
2023-07-25T01:55:48.642Z,17.31
2023-07-25T01:55:58.911Z,17.31
2023-07-25T01:56:09.167Z,17.31
2023-07-25T01:56:19.432Z,17.30
2023-07-25T01:56:29.689Z,17.30
2023-07-25T01:56:39.945Z,17.30
2023-07-25T01:56:51.070Z,17.30
2023-07-25T01:57:00.625Z,17.30
2023-07-25T01:57:10.857Z,17.30
2023-07-25T01:57:21.128Z,17.28
2023-07-25T01:57:31.419Z,17.30
2023-07-25T01:57:41.639Z,17.28
2023-07-25T01:57:51.901Z,17.28
2023-07-25T01:58:02.162Z,17.27
2023-07-25T01:58:12.423Z,17.30
2023-07-25T01:58:22.709Z,17.28
2023-07-25T01:58:32.959Z,17.28
2023-07-25T01:58:43.240Z,17.28
2023-07-25T01:58:53.518Z,17.28
2023-07-25T01:59:03.782Z,17.30
2023-07-25T01:59:14.047Z,17.28
2023-07-25T01:59:24.295Z,17.28
2023-07-25T01:59:34.548Z,17.30
2023-07-25T01:59:44.809Z,17.28
2023-07-25T01:59:55.067Z,17.28
2023-07-25T02:00:05.338Z,17.28
2023-07-25T02:00:15.604Z,17.28
2023-07-25T02:00:25.858Z,17.27
2023-07-25T02:00:36.121Z,17.27
2023-07-25T02:00:46.381Z,17.28
2023-07-25T02:00:56.676Z,17.27
2023-07-25T02:01:06.939Z,17.27
2023-07-25T02:01:17.207Z,17.27
2023-07-25T02:01:27.544Z,17.27
2023-07-25T02:01:37.878Z,17.28
2023-07-25T02:01:48.105Z,17.27
2023-07-25T02:01:58.364Z,17.28
2023-07-25T02:02:08.671Z,17.24
2023-07-25T02:02:18.980Z,17.28
2023-07-25T02:02:29.379Z,17.27
2023-07-25T02:02:39.769Z,17.28
2023-07-25T02:02:50.161Z,17.27
2023-07-25T02:03:00.380Z,17.24
2023-07-25T02:03:10.726Z,17.23
2023-07-25T02:03:21.013Z,17.24
2023-07-25T02:03:31.280Z,17.27
2023-07-25T02:03:41.524Z,17.24
2023-07-25T02:03:51.784Z,17.24
2023-07-25T02:04:02.039Z,17.23
2023-07-25T02:04:12.299Z,17.24
2023-07-25T02:04:22.560Z,17.24
2023-07-25T02:04:32.821Z,17.23
2023-07-25T02:04:43.080Z,17.22
2023-07-25T02:04:53.344Z,17.23
2023-07-25T02:05:03.618Z,17.24
2023-07-25T02:05:13.874Z,17.23
2023-07-25T02:05:24.134Z,17.23
2023-07-25T02:05:34.407Z,17.22
2023-07-25T02:05:44.655Z,17.20
2023-07-25T02:05:54.913Z,17.24
2023-07-25T02:06:05.214Z,17.22
2023-07-25T02:06:15.445Z,17.23
2023-07-25T02:06:25.717Z,17.23
2023-07-25T02:06:35.965Z,17.22
2023-07-25T02:06:46.228Z,17.22
2023-07-25T02:06:56.492Z,17.22
2023-07-25T02:07:06.760Z,17.22
2023-07-25T02:07:17.025Z,17.20
2023-07-25T02:07:27.293Z,17.20
2023-07-25T02:07:37.546Z,17.20
2023-07-25T02:07:47.825Z,17.22
2023-07-25T02:07:58.089Z,17.20
2023-07-25T02:08:08.369Z,17.20
2023-07-25T02:08:18.620Z,17.20
2023-07-25T02:08:28.883Z,17.22
2023-07-25T02:08:39.135Z,17.20
2023-07-25T02:08:49.397Z,17.19
2023-07-25T02:08:59.673Z,17.20
2023-07-25T02:09:09.922Z,17.20
2023-07-25T02:09:20.186Z,17.20
2023-07-25T02:09:30.444Z,17.19
2023-07-25T02:09:40.699Z,17.20
2023-07-25T02:09:50.959Z,17.19
2023-07-25T02:10:01.228Z,17.19
2023-07-25T02:10:11.481Z,17.20
2023-07-25T02:10:21.761Z,17.19
2023-07-25T02:10:32.009Z,17.20
2023-07-25T02:10:42.262Z,17.19
2023-07-25T02:10:52.568Z,17.19
2023-07-25T02:11:02.799Z,17.17
2023-07-25T02:11:13.060Z,17.19
2023-07-25T02:11:23.330Z,17.19
2023-07-25T02:11:33.945Z,17.20
2023-07-25T02:11:43.937Z,17.19
2023-07-25T02:11:54.206Z,17.19
2023-07-25T02:12:04.459Z,17.20
2023-07-25T02:12:14.720Z,17.17
2023-07-25T02:12:24.996Z,17.20
2023-07-25T02:12:35.271Z,17.17
2023-07-25T02:12:45.554Z,17.19
2023-07-25T02:12:55.812Z,17.17